Time;durP1;ratioP1;P1;durP2;ratioP2;P2;SDS_P1;SDS_P2;PMS_P1;PMS_P2;Temp;Humidity;BMP_temperature;BMP_pressure;BME280_temperature;BME280_humidity;BME280_pressure;Samples;Min_cycle;Max_cycle;Signal;HPM_P1;HPM_P2
2023/06/05 00:02:17;;;;;;;4.55;1.10;;;15.80;97.90;;;;;;5051560;28;20037;-54
2023/06/05 00:04:43;;;;;;;4.00;1.30;;;15.80;97.90;;;;;;5052109;28;20233;-55
2023/06/05 00:07:09;;;;;;;3.33;1.13;;;15.70;98.30;;;;;;5051544;28;20044;-53
2023/06/05 00:09:35;;;;;;;4.28;1.58;;;15.70;98.50;;;;;;5051567;28;20029;-56
2023/06/05 00:12:01;;;;;;;3.28;1.50;;;15.60;98.90;;;;;;5051319;28;20033;-55
2023/06/05 00:14:27;;;;;;;4.18;1.38;;;15.60;99.00;;;;;;5051546;28;20032;-52
2023/06/05 00:16:53;;;;;;;3.13;1.20;;;15.50;99.30;;;;;;5051754;28;20475;-53
2023/06/05 00:19:19;;;;;;;3.53;1.40;;;15.50;99.60;;;;;;5052051;28;20021;-56
2023/06/05 00:21:45;;;;;;;3.80;1.58;;;15.40;99.90;;;;;;5051117;28;20504;-56
2023/06/05 00:24:10;;;;;;;3.85;1.40;;;15.40;99.90;;;;;;5051497;28;20493;-53
2023/06/05 00:26:36;;;;;;;2.30;1.27;;;15.40;99.90;;;;;;5051311;28;20114;-56
2023/06/05 00:29:02;;;;;;;3.13;1.20;;;15.30;99.90;;;;;;5051403;28;20112;-52
2023/06/05 00:31:28;;;;;;;3.72;1.35;;;15.30;99.90;;;;;;5051402;28;20033;-54
2023/06/05 00:33:53;;;;;;;4.10;1.48;;;15.30;99.90;;;;;;5051576;28;20067;-53
2023/06/05 00:36:22;;;;;;;3.03;1.10;;;15.30;99.90;;;;;;5051170;28;20516;-56
2023/06/05 00:38:51;;;;;;;2.50;1.20;;;15.20;99.90;;;;;;5034017;28;20032;-55
2023/06/05 00:41:17;;;;;;;3.33;1.33;;;15.20;99.90;;;;;;5033413;28;20032;-54
2023/06/05 00:43:43;;;;;;;2.80;1.17;;;15.20;99.90;;;;;;5051335;28;20397;-56
2023/06/05 00:46:11;;;;;;;3.28;1.50;;;15.20;99.90;;;;;;5051222;28;20504;-55
2023/06/05 00:48:37;;;;;;;2.28;1.40;;;15.10;99.90;;;;;;5051310;28;20378;-53
2023/06/05 00:51:04;;;;;;;2.97;1.40;;;15.10;99.90;;;;;;5050866;28;20025;-54
2023/06/05 00:53:32;;;;;;;3.83;1.35;;;15.10;99.90;;;;;;5033129;28;20028;-53
2023/06/05 00:55:58;;;;;;;2.40;1.20;;;15.00;99.90;;;;;;5050917;28;20485;-52
2023/06/05 00:58:25;;;;;;;3.45;1.25;;;15.00;99.90;;;;;;5051128;28;20165;-56
2023/06/05 01:00:54;;;;;;;2.75;1.40;;;14.90;99.90;;;;;;5032632;28;20068;-56
2023/06/05 01:03:22;;;;;;;2.85;1.67;;;14.90;99.90;;;;;;5050777;28;20390;-54
2023/06/05 01:05:49;;;;;;;2.50;1.13;;;14.80;99.90;;;;;;5032508;28;20044;-52
2023/06/05 01:08:16;;;;;;;4.00;1.35;;;14.80;99.90;;;;;;5050751;28;20514;-55
2023/06/05 01:10:44;;;;;;;5.45;1.33;;;14.80;99.90;;;;;;5050333;28;20036;-56
2023/06/05 01:13:28;;;;;;;3.30;1.50;;;14.70;99.90;;;;;;5032556;28;20043;-51
2023/06/05 01:15:56;;;;;;;3.10;1.33;;;14.70;99.90;;;;;;5032419;28;20112;-54
2023/06/05 01:18:23;;;;;;;4.95;1.20;;;14.60;99.90;;;;;;5050461;28;20107;-56
2023/06/05 01:20:50;;;;;;;2.00;1.02;;;14.60;99.90;;;;;;5032235;28;20029;-50
2023/06/05 01:23:16;;;;;;;3.15;1.13;;;14.60;99.90;;;;;;5032472;28;20501;-54
2023/06/05 01:25:43;;;;;;;2.08;1.17;;;14.50;99.90;;;;;;5050308;28;20087;-54
2023/06/05 01:28:24;;;;;;;3.70;1.30;;;14.40;99.90;;;;;;5032824;28;20433;-53
2023/06/05 01:31:16;;;;;;;2.95;1.35;;;14.40;99.90;;;;;;5050036;28;20032;-56
2023/06/05 01:34:01;;;;;;;2.53;1.27;;;14.40;99.90;;;;;;5050316;28;20099;-51
2023/06/05 01:36:29;;;;;;;3.25;1.33;;;14.30;99.90;;;;;;5050121;28;20029;-51
2023/06/05 01:38:57;;;;;;;2.35;1.17;;;14.30;99.90;;;;;;5032433;28;20039;-49
2023/06/05 01:41:25;;;;;;;4.60;1.70;;;14.30;99.90;;;;;;5054512;28;20498;-51
2023/06/05 01:43:53;;;;;;;3.38;1.40;;;14.30;99.90;;;;;;5036561;28;20029;-50
2023/06/05 01:46:22;;;;;;;2.72;1.35;;;14.20;99.90;;;;;;5054377;28;20401;-51
2023/06/05 01:48:48;;;;;;;;;;;14.20;99.90;;;;;;5054998;28;20040;-51
2023/06/05 01:51:14;;;;;;;3.05;1.02;;;14.20;99.90;;;;;;5035973;28;20369;-53
2023/06/05 01:53:40;;;;;;;4.15;1.27;;;14.20;99.90;;;;;;5036039;28;20108;-51
2023/06/05 01:56:08;;;;;;;4.30;1.17;;;14.10;99.90;;;;;;5053958;28;20393;-52
2023/06/05 01:58:33;;;;;;;2.65;1.30;;;14.10;99.90;;;;;;5036248;28;20025;-52
2023/06/05 02:00:59;;;;;;;4.07;1.15;;;14.10;99.90;;;;;;5035892;28;20115;-54
2023/06/05 02:03:25;;;;;;;2.80;1.30;;;14.00;99.90;;;;;;5054010;28;20061;-55
2023/06/05 02:05:51;;;;;;;3.50;1.38;;;13.90;99.90;;;;;;5036254;28;20029;-53
2023/06/05 02:08:19;;;;;;;4.25;1.45;;;13.80;99.90;;;;;;5054302;28;20037;-54
2023/06/05 02:10:52;;;;;;;3.37;1.53;;;13.80;99.90;;;;;;5036286;28;20025;-53
2023/06/05 02:13:19;;;;;;;2.43;1.33;;;13.70;99.90;;;;;;5050926;22;20586;-47
2023/06/05 02:15:45;;;;;;;2.97;1.47;;;13.70;99.90;;;;;;5053666;28;20025;-48
2023/06/05 02:18:12;;;;;;;4.10;1.60;;;13.60;99.90;;;;;;5035728;28;20539;-50
2023/06/05 02:20:40;;;;;;;3.33;1.47;;;13.60;99.90;;;;;;5035450;28;20121;-50
2023/06/05 02:23:06;;;;;;;2.90;1.50;;;13.60;99.90;;;;;;5053539;28;20049;-50
2023/06/05 02:25:32;;;;;;;3.07;1.40;;;13.50;99.90;;;;;;5053736;28;20033;-51
2023/06/05 02:27:58;;;;;;;4.80;1.40;;;13.50;99.90;;;;;;5053825;28;20413;-48
2023/06/05 02:30:24;;;;;;;3.37;1.50;;;13.50;99.90;;;;;;5053316;28;20028;-47
2023/06/05 02:32:56;;;;;;;4.00;1.80;;;13.50;99.90;;;;;;5053443;28;20428;-47
2023/06/05 02:35:23;;;;;;;2.70;1.60;;;13.40;99.90;;;;;;5035378;28;20105;-49
2023/06/05 02:37:49;;;;;;;3.97;1.60;;;13.40;99.90;;;;;;5035433;28;20017;-48
2023/06/05 02:40:15;;;;;;;3.50;1.80;;;13.40;99.90;;;;;;5035359;28;20079;-48
2023/06/05 02:42:41;;;;;;;4.33;1.87;;;13.30;99.90;;;;;;5035371;28;20040;-49
2023/06/05 02:45:08;;;;;;;3.13;1.50;;;13.30;99.90;;;;;;5035242;28;20033;-48
2023/06/05 02:47:34;;;;;;;4.13;1.90;;;13.20;99.90;;;;;;5035291;28;20166;-48
2023/06/05 02:50:02;;;;;;;2.73;1.50;;;13.20;99.90;;;;;;5035354;28;20029;-49
2023/06/05 02:52:35;;;;;;;4.53;1.80;;;13.20;99.90;;;;;;5034970;28;20397;-47
2023/06/05 02:55:05;;;;;;;3.07;1.50;;;13.10;99.90;;;;;;5035232;28;20500;-48
2023/06/05 02:57:41;;;;;;;3.57;2.00;;;13.10;99.90;;;;;;5035118;28;20408;-49
2023/06/05 03:00:16;;;;;;;3.90;1.63;;;13.10;99.90;;;;;;5034957;28;20054;-52
2023/06/05 03:02:51;;;;;;;4.87;1.50;;;13.00;99.90;;;;;;5034861;28;20032;-48
2023/06/05 03:05:26;;;;;;;3.50;1.60;;;13.00;99.90;;;;;;5034872;28;20028;-49
2023/06/05 03:07:57;;;;;;;4.57;2.00;;;12.90;99.90;;;;;;5034995;28;20490;-47
2023/06/05 03:10:23;;;;;;;5.57;1.90;;;12.90;99.90;;;;;;5034750;28;20033;-50
2023/06/05 03:12:50;;;;;;;4.93;1.60;;;12.90;99.90;;;;;;5034631;28;20108;-47
2023/06/05 03:15:17;;;;;;;4.30;1.77;;;12.80;99.90;;;;;;5052545;28;20098;-49
2023/06/05 03:17:44;;;;;;;4.77;2.10;;;12.80;99.90;;;;;;5034770;28;20032;-48
2023/06/05 03:20:10;;;;;;;4.10;1.80;;;12.80;99.90;;;;;;5034598;28;20401;-49
2023/06/05 03:22:38;;;;;;;4.03;2.03;;;12.80;99.90;;;;;;5034846;28;20499;-48
2023/06/05 03:25:05;;;;;;;4.07;1.80;;;12.80;99.90;;;;;;5034686;28;20082;-48
2023/06/05 03:27:31;;;;;;;4.60;2.30;;;12.80;99.90;;;;;;5034626;28;20064;-49
2023/06/05 03:29:58;;;;;;;4.20;1.90;;;12.80;99.90;;;;;;5034637;28;20029;-49
2023/06/05 03:32:25;;;;;;;4.33;2.03;;;12.80;99.90;;;;;;5034482;28;20086;-49
2023/06/05 03:34:50;;;;;;;3.80;1.90;;;12.80;99.90;;;;;;5034684;28;20033;-51
2023/06/05 03:37:17;;;;;;;3.77;1.70;;;12.80;99.90;;;;;;5034760;28;20021;-51
2023/06/05 03:39:46;;;;;;;4.32;1.75;;;12.70;99.90;;;;;;5034817;28;20025;-49
2023/06/05 03:42:12;;;;;;;4.07;1.67;;;12.60;99.90;;;;;;5034370;28;20041;-50
2023/06/05 03:44:38;;;;;;;3.70;1.80;;;12.60;99.90;;;;;;5034473;28;20098;-50
2023/06/05 03:47:05;;;;;;;6.33;1.83;;;12.60;99.90;;;;;;5051924;28;20036;-50
2023/06/05 03:49:32;;;;;;;2.83;1.60;;;12.60;99.90;;;;;;5034341;28;20120;-52
2023/06/05 03:52:02;;;;;;;5.93;2.07;;;12.60;99.90;;;;;;5033891;28;20136;-46
2023/06/05 03:54:28;;;;;;;4.10;1.70;;;12.60;99.90;;;;;;5034214;28;20031;-46
2023/06/05 03:56:55;;;;;;;3.27;1.83;;;12.60;99.90;;;;;;5033867;28;20056;-49
2023/06/05 03:59:22;;;;;;;5.57;1.80;;;12.60;99.90;;;;;;5034142;28;20389;-50
2023/06/05 04:01:57;;;;;;;5.63;1.87;;;12.60;99.90;;;;;;5033147;28;20040;-50
2023/06/05 04:04:23;;;;;;;4.13;2.10;;;12.50;99.90;;;;;;5033763;28;20051;-52
2023/06/05 04:06:53;;;;;;;5.07;2.40;;;12.50;99.90;;;;;;5033696;28;20033;-53
2023/06/05 04:09:19;;;;;;;4.90;1.98;;;12.40;99.90;;;;;;5033712;28;20036;-53
2023/06/05 04:11:45;;;;;;;4.00;2.10;;;12.40;99.90;;;;;;5051261;28;20029;-49
2023/06/05 04:14:12;;;;;;;4.13;1.93;;;12.40;99.90;;;;;;5033562;28;20025;-50
2023/06/05 04:16:40;;;;;;;4.03;2.50;;;12.50;99.90;;;;;;5033475;28;20431;-50
2023/06/05 04:19:09;;;;;;;4.00;2.00;;;12.50;99.90;;;;;;5033795;28;20498;-52
2023/06/05 04:21:38;;;;;;;4.97;2.20;;;12.50;99.90;;;;;;5033336;28;20409;-54
2023/06/05 04:24:07;;;;;;;6.00;1.90;;;12.50;99.90;;;;;;5033487;28;20263;-50
2023/06/05 04:26:33;;;;;;;5.57;2.30;;;12.50;99.90;;;;;;5051213;28;20025;-52
2023/06/05 04:29:02;;;;;;;4.87;2.20;;;12.50;99.90;;;;;;5051460;28;20451;-50
2023/06/05 04:31:30;;;;;;;5.70;2.30;;;12.60;99.90;;;;;;5050900;28;20033;-52
2023/06/05 04:33:56;;;;;;;4.13;2.03;;;12.60;99.90;;;;;;5051347;28;20079;-50
2023/06/05 04:36:22;;;;;;;5.00;2.00;;;12.60;99.90;;;;;;5033166;28;20048;-49
2023/06/05 04:38:48;;;;;;;4.57;2.13;;;12.60;99.90;;;;;;5051113;28;20060;-47
2023/06/05 04:41:14;;;;;;;4.73;2.10;;;12.70;99.90;;;;;;5051119;28;20079;-51
2023/06/05 04:43:40;;;;;;;3.60;1.90;;;12.70;99.90;;;;;;5051001;28;20036;-47
2023/06/05 04:46:06;;;;;;;4.43;2.17;;;12.60;99.90;;;;;;5050731;28;20079;-50
2023/06/05 04:48:34;;;;;;;5.23;2.47;;;12.70;99.90;;;;;;5051082;28;20429;-49
2023/06/05 04:51:00;;;;;;;6.10;2.03;;;12.70;99.90;;;;;;5032583;28;20112;-48
2023/06/05 04:53:30;;;;;;;3.63;1.73;;;12.70;99.90;;;;;;5050726;28;20025;-49
2023/06/05 04:56:01;;;;;;;5.50;2.43;;;12.70;99.90;;;;;;5032746;28;20104;-48
2023/06/05 04:58:29;;;;;;;4.67;2.30;;;12.70;99.90;;;;;;5032965;28;20064;-50
2023/06/05 05:01:06;;;;;;;4.40;1.93;;;12.80;99.90;;;;;;5050486;28;20052;-52
2023/06/05 05:03:35;;;;;;;4.50;2.20;;;12.80;99.90;;;;;;5032859;28;20158;-53
2023/06/05 05:06:01;;;;;;;7.13;2.27;;;12.90;99.90;;;;;;5032637;28;21055;-48
2023/06/05 05:08:27;;;;;;;5.53;2.40;;;13.00;99.90;;;;;;5032809;28;20401;-48
2023/06/05 05:10:54;;;;;;;6.03;2.63;;;13.00;99.90;;;;;;5032530;28;20029;-49
2023/06/05 05:13:20;;;;;;;5.40;2.83;;;13.00;99.90;;;;;;5032524;28;20052;-52
2023/06/05 05:15:46;;;;;;;6.73;2.33;;;13.10;99.90;;;;;;5032469;28;20489;-47
2023/06/05 05:18:12;;;;;;;5.33;2.67;;;13.10;99.90;;;;;;5032844;28;20023;-47
2023/06/05 05:20:39;;;;;;;3.63;2.20;;;13.20;99.90;;;;;;5032437;28;20385;-47
2023/06/05 05:23:07;;;;;;;8.13;2.70;;;13.20;99.90;;;;;;5032643;28;20041;-48
2023/06/05 05:25:33;;;;;;;4.47;2.20;;;13.30;99.90;;;;;;5032534;28;20029;-48
2023/06/05 05:27:59;;;;;;;6.37;2.70;;;13.30;99.90;;;;;;5032645;28;20443;-50
2023/06/05 05:30:25;;;;;;;5.80;2.47;;;13.30;99.90;;;;;;5032524;28;20528;-49
2023/06/05 05:32:52;;;;;;;5.60;2.47;;;13.40;99.90;;;;;;5032413;28;20033;-49
2023/06/05 05:35:18;;;;;;;5.43;2.30;;;13.40;99.90;;;;;;5050283;28;20535;-49
2023/06/05 05:37:44;;;;;;;5.83;2.53;;;13.50;99.90;;;;;;5032561;28;20051;-51
2023/06/05 05:40:11;;;;;;;5.60;2.53;;;13.50;99.90;;;;;;5032428;28;20025;-52
2023/06/05 05:42:37;;;;;;;5.27;2.50;;;13.60;99.90;;;;;;5050389;28;20033;-48
2023/06/05 05:45:02;;;;;;;7.23;2.83;;;13.60;99.90;;;;;;5032387;28;20033;-53
2023/06/05 05:47:28;;;;;;;5.00;2.38;;;13.60;99.90;;;;;;5050253;28;20033;-50
2023/06/05 05:49:54;;;;;;;5.50;2.35;;;13.70;99.90;;;;;;5050318;28;20082;-49
2023/06/05 05:52:22;;;;;;;4.68;2.28;;;13.80;99.90;;;;;;5049926;28;20032;-51
2023/06/05 05:54:48;;;;;;;7.28;2.70;;;13.80;99.90;;;;;;5050354;28;20111;-52
2023/06/05 05:57:14;;;;;;;7.30;2.50;;;13.90;99.90;;;;;;5050130;28;20116;-49
2023/06/05 05:59:44;;;;;;;5.72;2.75;;;14.00;99.90;;;;;;5050408;28;20029;-53
2023/06/05 06:02:11;;;;;;;4.22;2.58;;;14.10;99.90;;;;;;5049910;28;20567;-50
2023/06/05 06:04:38;;;;;;;5.93;3.15;;;14.10;99.90;;;;;;5050215;28;20108;-49
2023/06/05 06:07:05;;;;;;;5.95;2.70;;;14.20;99.90;;;;;;5050122;28;20120;-52
2023/06/05 06:09:31;;;;;;;5.60;2.97;;;14.30;99.90;;;;;;5050199;28;20029;-51
2023/06/05 06:11:58;;;;;;;5.53;2.55;;;14.40;99.90;;;;;;5050139;28;20028;-50
2023/06/05 06:14:24;;;;;;;6.07;2.65;;;14.50;99.90;;;;;;5050271;28;20493;-48
2023/06/05 06:16:50;;;;;;;6.40;3.28;;;14.50;99.90;;;;;;5050209;28;20100;-50
2023/06/05 06:19:16;;;;;;;4.90;2.78;;;14.50;99.90;;;;;;5050516;28;20025;-51
2023/06/05 06:21:42;;;;;;;6.13;2.83;;;14.60;99.90;;;;;;5049930;28;20450;-52
2023/06/05 06:24:09;;;;;;;6.00;2.65;;;14.60;99.90;;;;;;5050202;28;20087;-51
2023/06/05 06:26:38;;;;;;;6.28;3.05;;;14.70;99.90;;;;;;5052229;28;20036;-49
2023/06/05 06:29:03;;;;;;;6.03;2.60;;;14.90;99.90;;;;;;5053615;28;20117;-50
2023/06/05 06:31:29;;;;;;;9.73;3.05;;;14.90;99.90;;;;;;5053221;28;20493;-48
2023/06/05 06:33:55;;;;;;;5.65;2.83;;;15.00;99.90;;;;;;5035631;28;20039;-53
2023/06/05 06:36:22;;;;;;;5.07;2.92;;;15.10;99.90;;;;;;5053226;28;20032;-52
2023/06/05 06:38:47;;;;;;;5.40;2.70;;;15.10;99.90;;;;;;5053483;28;20226;-53
2023/06/05 06:41:13;;;;;;;6.50;2.70;;;15.40;99.90;;;;;;5053238;28;20502;-51
2023/06/05 06:43:39;;;;;;;4.65;2.47;;;15.50;99.90;;;;;;5053272;28;20113;-51
2023/06/05 06:46:06;;;;;;;4.72;2.72;;;15.70;99.90;;;;;;5053342;28;20025;-48
2023/06/05 06:48:32;;;;;;;5.93;2.53;;;15.70;99.90;;;;;;5053384;28;20474;-53
2023/06/05 06:50:58;;;;;;;6.22;2.78;;;15.80;99.90;;;;;;5053148;28;20456;-51
2023/06/05 06:53:24;;;;;;;5.90;2.85;;;16.00;99.90;;;;;;5053093;28;20041;-50
2023/06/05 06:55:49;;;;;;;5.57;3.10;;;16.10;99.90;;;;;;5053048;28;20040;-53
2023/06/05 06:58:16;;;;;;;5.18;2.80;;;16.20;99.90;;;;;;5053051;28;20021;-50
2023/06/05 07:00:42;;;;;;;5.50;2.70;;;16.30;99.90;;;;;;5052819;28;20112;-51
2023/06/05 07:03:08;;;;;;;6.20;2.67;;;16.40;99.90;;;;;;5053234;28;20067;-51
2023/06/05 07:05:34;;;;;;;6.80;3.08;;;16.40;99.90;;;;;;5052962;28;20037;-52
2023/06/05 07:08:00;;;;;;;7.65;3.40;;;16.50;99.90;;;;;;5052912;28;20500;-53
2023/06/05 07:10:28;;;;;;;8.88;3.40;;;16.60;99.90;;;;;;5052733;28;20029;-53
2023/06/05 07:12:54;;;;;;;9.38;3.75;;;16.70;99.90;;;;;;5052504;28;20040;-52
2023/06/05 07:15:20;;;;;;;7.18;3.05;;;16.80;99.90;;;;;;5052867;28;20025;-52
2023/06/05 07:17:46;;;;;;;6.03;3.15;;;16.90;99.90;;;;;;5052903;28;20021;-50
2023/06/05 07:20:12;;;;;;;8.50;3.03;;;17.10;99.90;;;;;;5052493;28;20159;-48
2023/06/05 07:22:42;;;;;;;6.18;2.72;;;17.20;99.90;;;;;;5052607;28;20082;-53
2023/06/05 07:25:09;;;;;;;5.93;3.20;;;17.40;99.90;;;;;;5052390;28;20037;-50
2023/06/05 07:27:35;;;;;;;4.82;2.75;;;17.60;99.90;;;;;;5052470;28;20523;-52
2023/06/05 07:30:02;;;;;;;8.80;3.72;;;18.00;99.90;;;;;;5052552;28;20079;-50
2023/06/05 07:32:27;;;;;;;6.10;2.95;;;18.20;99.40;;;;;;5052517;28;20033;-55
2023/06/05 07:34:53;;;;;;;5.88;2.90;;;18.10;99.30;;;;;;5052326;28;20033;-51
2023/06/05 07:37:19;;;;;;;6.20;2.70;;;18.20;99.60;;;;;;5051720;28;20028;-50
2023/06/05 07:39:46;;;;;;;5.22;2.70;;;18.20;99.50;;;;;;5052342;28;20564;-49
2023/06/05 07:42:12;;;;;;;4.90;2.70;;;18.30;99.70;;;;;;5052289;28;20033;-53
2023/06/05 07:44:38;;;;;;;9.88;4.80;;;18.30;99.80;;;;;;5052270;28;20461;-49
2023/06/05 07:47:04;;;;;;;5.60;2.92;;;18.30;99.60;;;;;;5052060;28;20430;-54
2023/06/05 07:49:33;;;;;;;7.50;3.55;;;18.50;99.30;;;;;;5034273;28;20029;-51
2023/06/05 07:51:59;;;;;;;8.07;3.30;;;18.60;98.40;;;;;;5051786;28;20037;-50
2023/06/05 07:54:25;;;;;;;4.63;2.17;;;18.70;98.30;;;;;;5052083;28;20029;-53
2023/06/05 07:56:51;;;;;;;7.40;3.15;;;18.80;98.20;;;;;;5051778;28;20067;-51
2023/06/05 07:59:22;;;;;;;4.93;2.78;;;18.80;97.70;;;;;;5052007;28;20409;-54
2023/06/05 08:01:49;;;;;;;6.43;2.53;;;18.80;97.80;;;;;;5051645;28;20177;-52
2023/06/05 08:04:15;;;;;;;5.50;2.72;;;18.80;98.10;;;;;;5051821;28;20025;-53
2023/06/05 08:06:41;;;;;;;6.43;3.10;;;18.80;98.90;;;;;;5052163;28;20065;-54
2023/06/05 08:09:09;;;;;;;3.88;2.30;;;18.70;97.40;;;;;;5051892;28;20055;-51
2023/06/05 08:11:37;;;;;;;6.57;2.60;;;18.80;99.40;;;;;;5051297;28;20124;-49
2023/06/05 08:14:05;;;;;;;6.05;2.05;;;18.90;97.70;;;;;;5051729;28;20311;-49
2023/06/05 08:16:31;;;;;;;5.10;2.35;;;18.90;97.90;;;;;;5051617;28;20021;-48
2023/06/05 08:18:57;;;;;;;5.55;2.30;;;19.10;97.30;;;;;;5051752;28;20048;-49
2023/06/05 08:21:23;;;;;;;4.18;1.90;;;19.20;96.30;;;;;;5051470;28;20486;-49
2023/06/05 08:23:48;;;;;;;6.47;2.30;;;19.10;97.30;;;;;;5051700;28;20052;-49
2023/06/05 08:26:14;;;;;;;4.97;2.20;;;19.20;96.60;;;;;;5051700;28;20021;-48
2023/06/05 08:28:41;;;;;;;4.32;2.05;;;19.30;96.80;;;;;;5051625;28;20025;-50
2023/06/05 08:31:10;;;;;;;6.50;2.42;;;19.50;96.50;;;;;;5051485;28;20083;-49
2023/06/05 08:33:37;;;;;;;6.38;2.50;;;19.50;96.00;;;;;;5051416;28;20489;-49
2023/06/05 08:36:04;;;;;;;5.97;2.60;;;19.60;96.70;;;;;;5051050;28;20039;-49
2023/06/05 08:38:30;;;;;;;6.95;3.45;;;19.70;96.90;;;;;;5051313;28;20029;-54
2023/06/05 08:41:00;;;;;;;8.43;2.75;;;19.80;95.80;;;;;;5050770;28;20033;-49
2023/06/05 08:43:26;;;;;;;5.00;2.40;;;19.90;96.10;;;;;;5051145;28;20029;-51
2023/06/05 08:45:52;;;;;;;8.95;4.00;;;20.00;96.50;;;;;;5051011;28;20021;-49
2023/06/05 08:48:21;;;;;;;4.65;2.38;;;20.10;96.20;;;;;;5050841;28;20033;-53
2023/06/05 08:50:48;;;;;;;5.05;2.67;;;20.20;96.60;;;;;;5050799;28;20108;-51
2023/06/05 08:53:17;;;;;;;4.05;2.20;;;20.20;95.10;;;;;;5050917;28;20028;-48
2023/06/05 08:55:45;;;;;;;4.43;2.35;;;20.30;95.00;;;;;;5050728;28;20381;-48
2023/06/05 08:58:13;;;;;;;3.53;1.98;;;20.40;95.50;;;;;;5050907;28;20560;-51
2023/06/05 09:00:40;;;;;;;4.60;2.27;;;20.40;94.20;;;;;;5050644;28;20032;-49
2023/06/05 09:03:06;;;;;;;4.55;2.22;;;20.40;94.60;;;;;;5050697;28;20440;-48
2023/06/05 09:05:32;;;;;;;3.60;2.10;;;20.50;94.50;;;;;;5050872;28;20082;-52
2023/06/05 09:07:59;;;;;;;4.38;1.90;;;20.50;93.00;;;;;;5050941;28;20044;-51
2023/06/05 09:10:28;;;;;;;6.18;1.98;;;20.60;94.50;;;;;;5050534;28;20029;-50
2023/06/05 09:13:03;;;;;;;6.60;2.08;;;20.70;93.50;;;;;;5050513;28;20029;-50
2023/06/05 09:15:30;;;;;;;7.13;2.17;;;20.70;93.70;;;;;;5050426;28;20039;-47
2023/06/05 09:18:07;;;;;;;4.55;2.17;;;20.80;94.10;;;;;;5050460;28;20060;-49
2023/06/05 09:20:34;;;;;;;3.88;2.28;;;20.90;93.90;;;;;;5050534;28;20082;-48
2023/06/05 09:23:02;;;;;;;3.63;1.80;;;20.90;93.30;;;;;;5050510;28;20036;-51
2023/06/05 09:25:50;;;;;;;5.47;2.30;;;21.00;93.30;;;;;;5050260;28;20079;-49
2023/06/05 09:28:17;;;;;;;5.40;2.67;;;21.10;93.00;;;;;;5050996;28;20029;-51
2023/06/05 09:30:57;;;;;;;5.15;2.25;;;21.10;93.00;;;;;;5050146;28;20037;-48
2023/06/05 09:33:24;;;;;;;5.10;2.20;;;21.20;93.00;;;;;;5050333;28;20071;-49
2023/06/05 09:36:11;;;;;;;5.40;2.25;;;21.30;93.00;;;;;;5050283;28;20036;-53
2023/06/05 09:38:38;;;;;;;3.80;1.88;;;21.40;93.20;;;;;;5050274;28;20029;-53
2023/06/05 09:41:06;;;;;;;3.72;2.30;;;21.40;93.90;;;;;;5050176;28;20108;-52
2023/06/05 09:43:31;;;;;;;7.18;2.20;;;21.50;93.10;;;;;;5050736;28;20041;-51
2023/06/05 09:45:57;;;;;;;4.82;2.55;;;21.60;92.90;;;;;;5050258;28;20029;-49
2023/06/05 09:48:25;;;;;;;6.82;2.40;;;21.60;92.40;;;;;;5050363;28;20482;-51
2023/06/05 09:50:52;;;;;;;4.57;1.98;;;21.60;91.70;;;;;;5050165;28;20079;-51
2023/06/05 09:53:20;;;;;;;5.82;2.00;;;21.60;92.00;;;;;;5050119;28;20037;-49
2023/06/05 09:55:46;;;;;;;5.38;2.25;;;21.60;91.50;;;;;;5050283;28;20044;-50
2023/06/05 09:58:14;;;;;;;5.85;2.20;;;21.70;91.90;;;;;;5050385;28;20021;-51
2023/06/05 10:00:41;;;;;;;4.97;1.92;;;21.80;91.90;;;;;;5051019;28;20036;-50
2023/06/05 10:03:16;;;;;;;4.18;2.20;;;21.80;91.60;;;;;;5054398;28;20029;-53
2023/06/05 10:05:44;;;;;;;6.15;2.10;;;21.80;91.90;;;;;;5053866;28;20465;-51
2023/06/05 10:08:13;;;;;;;4.03;1.90;;;22.00;91.70;;;;;;5054335;28;20036;-49
2023/06/05 10:10:39;;;;;;;6.40;2.40;;;22.00;90.40;;;;;;5054261;28;20041;-48
2023/06/05 10:13:05;;;;;;;5.25;2.08;;;22.00;90.60;;;;;;5053607;28;20478;-50
2023/06/05 10:15:32;;;;;;;2.47;1.73;;;22.00;91.50;;;;;;5053647;28;20116;-47
2023/06/05 10:17:59;;;;;;;3.85;1.98;;;22.10;91.10;;;;;;5053836;28;20087;-51
2023/06/05 10:20:25;;;;;;;3.83;2.13;;;22.20;90.50;;;;;;5053511;28;20029;-53
2023/06/05 10:22:52;;;;;;;6.28;1.88;;;22.30;90.40;;;;;;5053781;28;20102;-49
2023/06/05 10:25:20;;;;;;;5.30;1.83;;;22.40;89.40;;;;;;5053587;28;20041;-51
2023/06/05 10:28:01;;;;;;;4.22;2.08;;;22.40;89.80;;;;;;5053718;28;20125;-51
2023/06/05 10:31:05;;;;;;;5.15;2.00;;;22.50;88.30;;;;;;5053560;28;20025;-52
2023/06/05 10:34:02;;;;;;;4.28;1.67;;;22.50;88.80;;;;;;5042783;28;20488;-49
2023/06/05 10:36:54;;;;;;;4.10;1.80;;;22.60;85.10;;;;;;5053534;28;20517;-53
2023/06/05 10:39:23;;;;;;;4.68;1.65;;;22.60;86.70;;;;;;5053585;28;20036;-50
2023/06/05 10:41:50;;;;;;;4.90;1.70;;;22.70;88.10;;;;;;5053573;28;20029;-51
2023/06/05 10:44:16;;;;;;;3.97;1.95;;;22.70;87.60;;;;;;5036094;28;20041;-49
2023/06/05 10:46:42;;;;;;;3.72;1.95;;;22.90;85.50;;;;;;5053204;28;20078;-53
2023/06/05 10:49:19;;;;;;;3.17;1.65;;;23.00;87.20;;;;;;5053209;28;20032;-50
2023/06/05 10:51:47;;;;;;;5.25;2.28;;;23.10;84.70;;;;;;5052856;28;20083;-52
2023/06/05 10:54:38;;;;;;;3.33;2.13;;;23.30;83.10;;;;;;5053287;28;20028;-51
2023/06/05 10:57:06;;;;;;;4.30;1.95;;;23.40;80.40;;;;;;5052860;28;20029;-53
2023/06/05 10:59:34;;;;;;;4.35;2.20;;;23.50;77.70;;;;;;5053263;28;20630;-51
2023/06/05 11:02:06;;;;;;;3.35;1.83;;;23.40;79.20;;;;;;5053295;28;20033;-50
2023/06/05 11:04:46;;;;;;;4.30;1.90;;;23.40;79.20;;;;;;5053063;28;20033;-53
2023/06/05 11:07:18;;;;;;;4.95;2.22;;;23.50;77.40;;;;;;5052862;28;20033;-53
2023/06/05 11:10:02;;;;;;;3.30;2.08;;;23.60;77.20;;;;;;5052915;28;20033;-51
2023/06/05 11:12:42;;;;;;;4.57;2.00;;;23.50;76.50;;;;;;5052370;28;20047;-49
2023/06/05 11:15:36;;;;;;;4.35;2.00;;;23.60;72.90;;;;;;5052751;28;20516;-52
2023/06/05 11:18:31;;;;;;;3.72;2.22;;;23.50;74.10;;;;;;5052750;28;20398;-49
2023/06/05 11:20:58;;;;;;;5.40;2.28;;;23.60;73.90;;;;;;5052354;28;20032;-52
2023/06/05 11:23:28;;;;;;;4.35;2.15;;;23.50;72.20;;;;;;5052645;28;20032;-52
2023/06/05 11:25:58;;;;;;;4.25;2.33;;;23.50;74.10;;;;;;5052540;28;20468;-48
2023/06/05 11:28:43;;;;;;;2.97;1.75;;;23.60;75.20;;;;;;5052615;28;20386;-49
2023/06/05 11:31:09;;;;;;;2.97;1.77;;;23.80;67.30;;;;;;5052147;28;20065;-52
2023/06/05 11:33:35;;;;;;;3.25;1.90;;;23.70;66.90;;;;;;5052406;28;20032;-52
2023/06/05 11:36:03;;;;;;;3.38;2.10;;;23.70;70.20;;;;;;5052359;28;20094;-48
2023/06/05 11:38:29;;;;;;;3.90;1.98;;;23.60;67.20;;;;;;5052496;28;20516;-51
2023/06/05 11:40:55;;;;;;;3.92;1.95;;;23.60;69.20;;;;;;5052389;28;20120;-52
2023/06/05 11:43:21;;;;;;;5.40;2.13;;;23.50;68.30;;;;;;5052424;28;20109;-48
2023/06/05 11:45:58;;;;;;;8.13;2.53;;;23.50;69.00;;;;;;5052160;28;20111;-50
2023/06/05 11:48:25;;;;;;;5.20;2.88;;;23.60;69.00;;;;;;5052174;28;20437;-49
2023/06/05 11:51:05;;;;;;;3.35;1.90;;;23.70;70.60;;;;;;5051820;28;20108;-48
2023/06/05 11:53:32;;;;;;;4.25;2.30;;;23.80;64.50;;;;;;5052005;28;20039;-49
2023/06/05 11:58:31;;;;;;;3.55;1.35;;;23.90;62.80;;;;;;5051972;28;20025;-48
2023/06/05 12:01:17;;;;;;;6.82;3.28;;;23.80;63.60;;;;;;5051691;28;20442;-49
2023/06/05 12:03:46;;;;;;;2.72;1.55;;;23.90;63.40;;;;;;5051802;28;20493;-48
2023/06/05 12:06:16;;;;;;;2.97;1.90;;;23.90;63.80;;;;;;5051728;28;20477;-49
2023/06/05 12:08:42;;;;;;;2.88;1.60;;;24.00;62.70;;;;;;5051695;28;20549;-48
2023/06/05 12:11:25;;;;;;;2.85;1.50;;;24.00;63.50;;;;;;5051455;28;20043;-48
2023/06/05 12:13:52;;;;;;;3.33;1.70;;;24.00;61.40;;;;;;5051649;28;20039;-49
2023/06/05 12:16:19;;;;;;;4.23;1.90;;;24.10;60.60;;;;;;5051529;28;20512;-49
2023/06/05 12:18:47;;;;;;;2.85;1.65;;;24.20;62.50;;;;;;5051571;28;21013;-48
2023/06/05 12:21:24;;;;;;;3.75;2.00;;;24.20;58.50;;;;;;5051154;28;20508;-50
2023/06/05 12:23:50;;;;;;;4.80;1.50;;;24.30;60.50;;;;;;5051208;28;20029;-48
2023/06/05 12:26:16;;;;;;;4.93;2.60;;;24.30;59.90;;;;;;5051286;28;20029;-48
2023/06/05 12:28:44;;;;;;;3.03;1.75;;;24.30;60.70;;;;;;5051552;28;20032;-48
2023/06/05 12:31:10;;;;;;;3.20;1.50;;;24.30;59.70;;;;;;5051128;28;20389;-48
2023/06/05 12:33:47;;;;;;;3.95;1.83;;;24.30;59.70;;;;;;5051227;28;20374;-48
2023/06/05 12:36:13;;;;;;;3.15;2.03;;;24.30;60.10;;;;;;5050946;28;20040;-48
2023/06/05 12:38:40;;;;;;;2.95;1.63;;;24.40;59.80;;;;;;5051283;28;20029;-49
2023/06/05 12:41:07;;;;;;;4.63;2.08;;;24.40;59.50;;;;;;5050938;28;20474;-47
2023/06/05 12:43:34;;;;;;;2.63;1.80;;;24.50;58.70;;;;;;5051170;28;20455;-49
2023/06/05 12:46:00;;;;;;;3.58;1.40;;;24.50;56.60;;;;;;5050877;28;20033;-50
2023/06/05 12:48:26;;;;;;;4.55;1.95;;;24.50;57.20;;;;;;5051138;28;20025;-51
2023/06/05 12:50:52;;;;;;;3.25;1.73;;;24.50;56.60;;;;;;5051129;28;20040;-49
2023/06/05 12:53:18;;;;;;;4.38;1.67;;;24.40;56.80;;;;;;5051457;28;20683;-48
2023/06/05 12:55:43;;;;;;;3.35;1.80;;;24.50;56.90;;;;;;5051014;28;20021;-48
2023/06/05 12:58:10;;;;;;;3.53;1.52;;;24.50;58.00;;;;;;5051036;28;20366;-49